sensor_id;sensor_type;location;lat;lon;timestamp;P1;durP1;ratioP1;P2;durP2;ratioP2
39050;SDS011;24805;55.852;37.644;2023-01-16T00:01:06;21.35;;;9.77;;
39050;SDS011;24805;55.852;37.644;2023-01-16T00:06:08;21.77;;;9.43;;
39050;SDS011;24805;55.852;37.644;2023-01-16T00:11:10;21.63;;;10.18;;
39050;SDS011;24805;55.852;37.644;2023-01-16T00:16:13;25.33;;;8.60;;
39050;SDS011;24805;55.852;37.644;2023-01-16T00:21:15;25.40;;;9.70;;
39050;SDS011;24805;55.852;37.644;2023-01-16T00:26:17;23.42;;;10.80;;
39050;SDS011;24805;55.852;37.644;2023-01-16T00:31:20;22.92;;;11.50;;
39050;SDS011;24805;55.852;37.644;2023-01-16T00:36:25;24.98;;;11.50;;
39050;SDS011;24805;55.852;37.644;2023-01-16T00:41:27;25.52;;;10.32;;
39050;SDS011;24805;55.852;37.644;2023-01-16T00:46:29;21.38;;;10.15;;
39050;SDS011;24805;55.852;37.644;2023-01-16T00:51:31;29.08;;;11.10;;
39050;SDS011;24805;55.852;37.644;2023-01-16T00:56:33;24.13;;;10.40;;
39050;SDS011;24805;55.852;37.644;2023-01-16T01:01:35;19.95;;;9.07;;
39050;SDS011;24805;55.852;37.644;2023-01-16T01:06:39;22.83;;;10.73;;
39050;SDS011;24805;55.852;37.644;2023-01-16T01:11:41;21.83;;;10.35;;
39050;SDS011;24805;55.852;37.644;2023-01-16T01:16:44;24.40;;;10.48;;
39050;SDS011;24805;55.852;37.644;2023-01-16T01:21:46;24.90;;;10.13;;
39050;SDS011;24805;55.852;37.644;2023-01-16T01:26:48;26.17;;;10.50;;
39050;SDS011;24805;55.852;37.644;2023-01-16T01:31:50;23.00;;;10.30;;
39050;SDS011;24805;55.852;37.644;2023-01-16T01:36:52;22.70;;;10.45;;
39050;SDS011;24805;55.852;37.644;2023-01-16T01:41:55;17.13;;;8.27;;
39050;SDS011;24805;55.852;37.644;2023-01-16T01:47:18;27.73;;;11.23;;
39050;SDS011;24805;55.852;37.644;2023-01-16T01:52:25;19.70;;;10.02;;
39050;SDS011;24805;55.852;37.644;2023-01-16T01:57:34;23.70;;;9.98;;
39050;SDS011;24805;55.852;37.644;2023-01-16T02:02:42;25.13;;;10.50;;
39050;SDS011;24805;55.852;37.644;2023-01-16T02:07:48;20.98;;;10.63;;
39050;SDS011;24805;55.852;37.644;2023-01-16T02:12:51;27.08;;;11.15;;
39050;SDS011;24805;55.852;37.644;2023-01-16T02:17:55;22.67;;;9.25;;
39050;SDS011;24805;55.852;37.644;2023-01-16T02:43:46;22.92;;;8.57;;
39050;SDS011;24805;55.852;37.644;2023-01-16T02:49:01;22.90;;;8.55;;
39050;SDS011;24805;55.852;37.644;2023-01-16T02:54:14;25.67;;;8.18;;
39050;SDS011;24805;55.852;37.644;2023-01-16T02:59:26;18.13;;;7.53;;
39050;SDS011;24805;55.852;37.644;2023-01-16T03:15:44;18.70;;;8.10;;
39050;SDS011;24805;55.852;37.644;2023-01-16T03:26:56;20.40;;;8.80;;
39050;SDS011;24805;55.852;37.644;2023-01-16T03:37:20;26.27;;;9.27;;
39050;SDS011;24805;55.852;37.644;2023-01-16T03:42:37;22.10;;;9.13;;
39050;SDS011;24805;55.852;37.644;2023-01-16T03:48:07;13.10;;;4.85;;
39050;SDS011;24805;55.852;37.644;2023-01-16T03:53:24;21.85;;;8.30;;
39050;SDS011;24805;55.852;37.644;2023-01-16T03:58:31;30.15;;;10.05;;
39050;SDS011;24805;55.852;37.644;2023-01-16T04:03:39;23.90;;;7.93;;
39050;SDS011;24805;55.852;37.644;2023-01-16T04:08:46;23.65;;;8.30;;
39050;SDS011;24805;55.852;37.644;2023-01-16T04:13:50;21.60;;;8.85;;
39050;SDS011;24805;55.852;37.644;2023-01-16T04:18:56;21.85;;;8.55;;
39050;SDS011;24805;55.852;37.644;2023-01-16T04:24:00;20.95;;;9.40;;
39050;SDS011;24805;55.852;37.644;2023-01-16T04:29:03;32.83;;;10.40;;
39050;SDS011;24805;55.852;37.644;2023-01-16T04:34:05;24.90;;;8.95;;
39050;SDS011;24805;55.852;37.644;2023-01-16T04:39:08;21.95;;;8.68;;
39050;SDS011;24805;55.852;37.644;2023-01-16T04:44:10;24.05;;;9.30;;
39050;SDS011;24805;55.852;37.644;2023-01-16T04:49:14;17.90;;;6.60;;
39050;SDS011;24805;55.852;37.644;2023-01-16T04:54:17;24.15;;;8.65;;
39050;SDS011;24805;55.852;37.644;2023-01-16T04:59:20;25.85;;;8.65;;
39050;SDS011;24805;55.852;37.644;2023-01-16T05:04:22;21.80;;;7.38;;
39050;SDS011;24805;55.852;37.644;2023-01-16T05:09:24;27.00;;;7.95;;
39050;SDS011;24805;55.852;37.644;2023-01-16T05:14:26;28.35;;;9.43;;
39050;SDS011;24805;55.852;37.644;2023-01-16T05:19:28;20.77;;;8.77;;
39050;SDS011;24805;55.852;37.644;2023-01-16T05:24:30;23.42;;;8.90;;
39050;SDS011;24805;55.852;37.644;2023-01-16T05:29:33;15.70;;;5.68;;
39050;SDS011;24805;55.852;37.644;2023-01-16T05:34:35;34.97;;;8.82;;
39050;SDS011;24805;55.852;37.644;2023-01-16T05:39:37;24.40;;;7.25;;
39050;SDS011;24805;55.852;37.644;2023-01-16T05:44:39;24.73;;;8.88;;
39050;SDS011;24805;55.852;37.644;2023-01-16T05:49:41;28.27;;;8.85;;
39050;SDS011;24805;55.852;37.644;2023-01-16T05:54:43;22.45;;;7.35;;
39050;SDS011;24805;55.852;37.644;2023-01-16T05:59:51;24.63;;;8.05;;
39050;SDS011;24805;55.852;37.644;2023-01-16T06:04:54;28.15;;;8.35;;
39050;SDS011;24805;55.852;37.644;2023-01-16T06:09:57;23.30;;;8.35;;
39050;SDS011;24805;55.852;37.644;2023-01-16T06:14:59;19.58;;;7.38;;
39050;SDS011;24805;55.852;37.644;2023-01-16T06:20:01;20.08;;;7.30;;
39050;SDS011;24805;55.852;37.644;2023-01-16T06:25:04;24.33;;;9.77;;
39050;SDS011;24805;55.852;37.644;2023-01-16T06:30:07;18.95;;;6.90;;
39050;SDS011;24805;55.852;37.644;2023-01-16T06:35:10;27.08;;;7.43;;
39050;SDS011;24805;55.852;37.644;2023-01-16T06:40:12;16.30;;;6.13;;
39050;SDS011;24805;55.852;37.644;2023-01-16T06:45:14;23.13;;;9.98;;
39050;SDS011;24805;55.852;37.644;2023-01-16T06:50:16;20.55;;;7.20;;
39050;SDS011;24805;55.852;37.644;2023-01-16T06:55:19;18.15;;;6.35;;
39050;SDS011;24805;55.852;37.644;2023-01-16T07:00:21;21.17;;;6.68;;
39050;SDS011;24805;55.852;37.644;2023-01-16T07:05:24;17.88;;;6.63;;
39050;SDS011;24805;55.852;37.644;2023-01-16T07:10:27;21.67;;;7.70;;
39050;SDS011;24805;55.852;37.644;2023-01-16T07:15:29;19.65;;;6.95;;
39050;SDS011;24805;55.852;37.644;2023-01-16T07:20:54;25.05;;;8.15;;
39050;SDS011;24805;55.852;37.644;2023-01-16T07:26:17;18.52;;;6.80;;
39050;SDS011;24805;55.852;37.644;2023-01-16T07:31:20;17.35;;;6.00;;
39050;SDS011;24805;55.852;37.644;2023-01-16T07:36:24;20.45;;;6.63;;
39050;SDS011;24805;55.852;37.644;2023-01-16T07:41:26;22.92;;;6.70;;
39050;SDS011;24805;55.852;37.644;2023-01-16T07:46:28;21.63;;;6.82;;
39050;SDS011;24805;55.852;37.644;2023-01-16T07:51:30;16.60;;;6.30;;
39050;SDS011;24805;55.852;37.644;2023-01-16T07:56:32;11.48;;;5.63;;
39050;SDS011;24805;55.852;37.644;2023-01-16T08:01:34;15.02;;;6.65;;
39050;SDS011;24805;55.852;37.644;2023-01-16T08:06:37;12.05;;;4.10;;
39050;SDS011;24805;55.852;37.644;2023-01-16T08:11:44;18.48;;;5.65;;
39050;SDS011;24805;55.852;37.644;2023-01-16T08:16:48;22.30;;;6.35;;
39050;SDS011;24805;55.852;37.644;2023-01-16T08:21:50;18.33;;;5.93;;
39050;SDS011;24805;55.852;37.644;2023-01-16T08:26:53;21.65;;;6.95;;
39050;SDS011;24805;55.852;37.644;2023-01-16T08:31:55;21.55;;;6.60;;
39050;SDS011;24805;55.852;37.644;2023-01-16T08:36:57;12.30;;;5.50;;
39050;SDS011;24805;55.852;37.644;2023-01-16T08:41:59;14.07;;;5.97;;
39050;SDS011;24805;55.852;37.644;2023-01-16T08:47:22;22.97;;;6.53;;
39050;SDS011;24805;55.852;37.644;2023-01-16T08:52:43;13.70;;;6.10;;
39050;SDS011;24805;55.852;37.644;2023-01-16T08:57:46;17.77;;;6.07;;
39050;SDS011;24805;55.852;37.644;2023-01-16T09:02:48;18.70;;;6.15;;
39050;SDS011;24805;55.852;37.644;2023-01-16T09:07:50;16.70;;;6.20;;
39050;SDS011;24805;55.852;37.644;2023-01-16T09:12:52;14.25;;;6.32;;
39050;SDS011;24805;55.852;37.644;2023-01-16T09:18:13;16.98;;;5.72;;
39050;SDS011;24805;55.852;37.644;2023-01-16T09:23:16;14.15;;;5.15;;
39050;SDS011;24805;55.852;37.644;2023-01-16T09:28:18;16.33;;;7.10;;
39050;SDS011;24805;55.852;37.644;2023-01-16T09:33:20;15.88;;;6.07;;
39050;SDS011;24805;55.852;37.644;2023-01-16T09:38:22;12.38;;;4.07;;
39050;SDS011;24805;55.852;37.644;2023-01-16T09:43:37;19.13;;;6.60;;
39050;SDS011;24805;55.852;37.644;2023-01-16T09:54:19;11.45;;;3.75;;
39050;SDS011;24805;55.852;37.644;2023-01-16T09:59:46;9.45;;;4.00;;
39050;SDS011;24805;55.852;37.644;2023-01-16T10:04:51;11.68;;;4.95;;
39050;SDS011;24805;55.852;37.644;2023-01-16T10:10:58;13.45;;;4.90;;
39050;SDS011;24805;55.852;37.644;2023-01-16T10:26:14;8.70;;;2.72;;
39050;SDS011;24805;55.852;37.644;2023-01-16T10:31:28;12.18;;;4.80;;
39050;SDS011;24805;55.852;37.644;2023-01-16T10:36:37;11.82;;;5.70;;
39050;SDS011;24805;55.852;37.644;2023-01-16T10:41:54;15.48;;;5.50;;
39050;SDS011;24805;55.852;37.644;2023-01-16T10:47:27;12.43;;;6.95;;
39050;SDS011;24805;55.852;37.644;2023-01-16T10:52:50;19.00;;;6.20;;
39050;SDS011;24805;55.852;37.644;2023-01-16T10:57:53;18.60;;;6.47;;
39050;SDS011;24805;55.852;37.644;2023-01-16T11:03:00;21.77;;;6.75;;
39050;SDS011;24805;55.852;37.644;2023-01-16T11:08:14;18.10;;;6.32;;
39050;SDS011;24805;55.852;37.644;2023-01-16T11:13:19;9.80;;;3.83;;
39050;SDS011;24805;55.852;37.644;2023-01-16T11:18:42;14.30;;;5.78;;
39050;SDS011;24805;55.852;37.644;2023-01-16T11:23:46;11.70;;;5.07;;
39050;SDS011;24805;55.852;37.644;2023-01-16T11:28:50;8.95;;;4.38;;
39050;SDS011;24805;55.852;37.644;2023-01-16T11:34:01;8.65;;;4.30;;
39050;SDS011;24805;55.852;37.644;2023-01-16T11:39:17;8.65;;;4.88;;
39050;SDS011;24805;55.852;37.644;2023-01-16T11:44:27;14.75;;;4.88;;
39050;SDS011;24805;55.852;37.644;2023-01-16T11:49:50;7.95;;;3.75;;
39050;SDS011;24805;55.852;37.644;2023-01-16T11:54:54;11.32;;;5.38;;
39050;SDS011;24805;55.852;37.644;2023-01-16T12:00:03;12.40;;;6.15;;
39050;SDS011;24805;55.852;37.644;2023-01-16T12:05:35;9.80;;;4.25;;
39050;SDS011;24805;55.852;37.644;2023-01-16T12:11:08;15.18;;;6.40;;
39050;SDS011;24805;55.852;37.644;2023-01-16T12:16:43;13.30;;;6.22;;
39050;SDS011;24805;55.852;37.644;2023-01-16T12:22:04;14.13;;;4.80;;
39050;SDS011;24805;55.852;37.644;2023-01-16T13:00:02;9.88;;;4.88;;
39050;SDS011;24805;55.852;37.644;2023-01-16T13:05:02;11.10;;;5.40;;
39050;SDS011;24805;55.852;37.644;2023-01-16T13:15:34;15.32;;;5.85;;
39050;SDS011;24805;55.852;37.644;2023-01-16T13:20:40;10.00;;;4.20;;
39050;SDS011;24805;55.852;37.644;2023-01-16T13:25:45;13.25;;;6.78;;
39050;SDS011;24805;55.852;37.644;2023-01-16T13:30:51;13.65;;;6.57;;
39050;SDS011;24805;55.852;37.644;2023-01-16T13:41:10;15.18;;;6.13;;
39050;SDS011;24805;55.852;37.644;2023-01-16T13:46:16;19.55;;;6.60;;
39050;SDS011;24805;55.852;37.644;2023-01-16T13:51:21;13.82;;;5.68;;
39050;SDS011;24805;55.852;37.644;2023-01-16T13:56:26;14.82;;;7.38;;
39050;SDS011;24805;55.852;37.644;2023-01-16T14:01:52;15.90;;;6.88;;
39050;SDS011;24805;55.852;37.644;2023-01-16T14:07:00;13.88;;;7.05;;
39050;SDS011;24805;55.852;37.644;2023-01-16T14:12:23;17.15;;;7.32;;
39050;SDS011;24805;55.852;37.644;2023-01-16T14:22:56;16.42;;;7.55;;
39050;SDS011;24805;55.852;37.644;2023-01-16T14:28:18;20.63;;;7.15;;
39050;SDS011;24805;55.852;37.644;2023-01-16T14:33:20;17.02;;;8.00;;
39050;SDS011;24805;55.852;37.644;2023-01-16T14:38:25;17.70;;;8.18;;
39050;SDS011;24805;55.852;37.644;2023-01-16T14:43:32;21.75;;;8.90;;
39050;SDS011;24805;55.852;37.644;2023-01-16T15:05:11;20.98;;;8.63;;
39050;SDS011;24805;55.852;37.644;2023-01-16T15:10:36;16.33;;;8.45;;
39050;SDS011;24805;55.852;37.644;2023-01-16T15:15:41;18.10;;;8.80;;
39050;SDS011;24805;55.852;37.644;2023-01-16T15:20:46;20.58;;;9.27;;
39050;SDS011;24805;55.852;37.644;2023-01-16T15:26:10;21.93;;;8.20;;
39050;SDS011;24805;55.852;37.644;2023-01-16T15:36:41;20.15;;;8.82;;
39050;SDS011;24805;55.852;37.644;2023-01-16T15:52:42;23.40;;;10.18;;
39050;SDS011;24805;55.852;37.644;2023-01-16T15:57:46;13.95;;;7.45;;
39050;SDS011;24805;55.852;37.644;2023-01-16T16:02:55;17.10;;;9.77;;
39050;SDS011;24805;55.852;37.644;2023-01-16T16:08:14;13.18;;;6.30;;
39050;SDS011;24805;55.852;37.644;2023-01-16T16:13:25;20.70;;;9.48;;
39050;SDS011;24805;55.852;37.644;2023-01-16T16:18:27;25.38;;;10.05;;
39050;SDS011;24805;55.852;37.644;2023-01-16T16:23:30;17.60;;;8.57;;
39050;SDS011;24805;55.852;37.644;2023-01-16T16:28:34;20.33;;;9.50;;
39050;SDS011;24805;55.852;37.644;2023-01-16T16:33:41;17.90;;;8.65;;
39050;SDS011;24805;55.852;37.644;2023-01-16T16:38:46;25.60;;;10.65;;
39050;SDS011;24805;55.852;37.644;2023-01-16T16:43:57;19.80;;;10.15;;
39050;SDS011;24805;55.852;37.644;2023-01-16T16:54:12;25.92;;;9.90;;
39050;SDS011;24805;55.852;37.644;2023-01-16T16:59:25;23.30;;;11.00;;
39050;SDS011;24805;55.852;37.644;2023-01-16T17:04:29;25.17;;;11.80;;
39050;SDS011;24805;55.852;37.644;2023-01-16T17:09:32;21.63;;;9.18;;
39050;SDS011;24805;55.852;37.644;2023-01-16T17:14:36;22.73;;;10.00;;
39050;SDS011;24805;55.852;37.644;2023-01-16T17:19:38;25.13;;;11.20;;
39050;SDS011;24805;55.852;37.644;2023-01-16T17:24:40;23.70;;;11.05;;
39050;SDS011;24805;55.852;37.644;2023-01-16T17:29:42;24.55;;;10.40;;
39050;SDS011;24805;55.852;37.644;2023-01-16T17:34:44;13.95;;;7.28;;
39050;SDS011;24805;55.852;37.644;2023-01-16T17:39:46;17.15;;;8.23;;
39050;SDS011;24805;55.852;37.644;2023-01-16T17:44:48;25.05;;;10.10;;
39050;SDS011;24805;55.852;37.644;2023-01-16T17:50:09;24.20;;;9.88;;
39050;SDS011;24805;55.852;37.644;2023-01-16T17:55:23;24.05;;;9.63;;
39050;SDS011;24805;55.852;37.644;2023-01-16T18:00:44;20.95;;;9.30;;
39050;SDS011;24805;55.852;37.644;2023-01-16T18:05:46;19.55;;;8.27;;
39050;SDS011;24805;55.852;37.644;2023-01-16T18:10:48;19.45;;;9.30;;
39050;SDS011;24805;55.852;37.644;2023-01-16T18:15:50;20.30;;;10.25;;
39050;SDS011;24805;55.852;37.644;2023-01-16T18:21:12;28.88;;;9.52;;
39050;SDS011;24805;55.852;37.644;2023-01-16T18:26:33;19.02;;;9.23;;
39050;SDS011;24805;55.852;37.644;2023-01-16T18:31:36;20.77;;;9.13;;
39050;SDS011;24805;55.852;37.644;2023-01-16T18:36:38;18.75;;;6.35;;
39050;SDS011;24805;55.852;37.644;2023-01-16T18:41:40;24.45;;;10.65;;
39050;SDS011;24805;55.852;37.644;2023-01-16T18:47:00;18.38;;;8.55;;
39050;SDS011;24805;55.852;37.644;2023-01-16T18:52:21;20.55;;;9.50;;
39050;SDS011;24805;55.852;37.644;2023-01-16T18:57:42;26.20;;;8.75;;
39050;SDS011;24805;55.852;37.644;2023-01-16T19:03:03;14.27;;;7.40;;
39050;SDS011;24805;55.852;37.644;2023-01-16T19:08:05;21.27;;;9.27;;
39050;SDS011;24805;55.852;37.644;2023-01-16T19:13:07;17.60;;;7.88;;
39050;SDS011;24805;55.852;37.644;2023-01-16T19:18:10;21.17;;;10.82;;
39050;SDS011;24805;55.852;37.644;2023-01-16T19:23:12;18.77;;;9.35;;
39050;SDS011;24805;55.852;37.644;2023-01-16T19:28:14;19.05;;;8.52;;
39050;SDS011;24805;55.852;37.644;2023-01-16T19:33:16;18.80;;;9.48;;
39050;SDS011;24805;55.852;37.644;2023-01-16T19:38:18;20.00;;;10.45;;
39050;SDS011;24805;55.852;37.644;2023-01-16T19:43:21;18.33;;;9.68;;
39050;SDS011;24805;55.852;37.644;2023-01-16T19:48:41;19.10;;;10.00;;
39050;SDS011;24805;55.852;37.644;2023-01-16T19:53:43;15.38;;;7.47;;
39050;SDS011;24805;55.852;37.644;2023-01-16T19:58:45;17.63;;;7.03;;
39050;SDS011;24805;55.852;37.644;2023-01-16T20:03:47;19.58;;;10.35;;
39050;SDS011;24805;55.852;37.644;2023-01-16T20:08:49;18.17;;;10.07;;
39050;SDS011;24805;55.852;37.644;2023-01-16T20:13:52;20.27;;;10.65;;
39050;SDS011;24805;55.852;37.644;2023-01-16T20:18:54;19.08;;;11.13;;
39050;SDS011;24805;55.852;37.644;2023-01-16T20:23:56;24.67;;;11.10;;
39050;SDS011;24805;55.852;37.644;2023-01-16T20:28:58;16.60;;;9.07;;
39050;SDS011;24805;55.852;37.644;2023-01-16T20:34:01;22.13;;;12.27;;
39050;SDS011;24805;55.852;37.644;2023-01-16T20:39:06;22.90;;;11.50;;
39050;SDS011;24805;55.852;37.644;2023-01-16T20:44:14;19.58;;;10.00;;
39050;SDS011;24805;55.852;37.644;2023-01-16T20:49:36;26.75;;;13.70;;
39050;SDS011;24805;55.852;37.644;2023-01-16T20:54:38;26.85;;;11.88;;
39050;SDS011;24805;55.852;37.644;2023-01-16T20:59:41;19.25;;;11.52;;
39050;SDS011;24805;55.852;37.644;2023-01-16T21:04:43;27.65;;;10.75;;
39050;SDS011;24805;55.852;37.644;2023-01-16T21:09:45;26.90;;;12.57;;
39050;SDS011;24805;55.852;37.644;2023-01-16T21:14:47;21.08;;;11.10;;
39050;SDS011;24805;55.852;37.644;2023-01-16T21:19:50;29.40;;;13.75;;
39050;SDS011;24805;55.852;37.644;2023-01-16T21:25:12;24.08;;;13.60;;
39050;SDS011;24805;55.852;37.644;2023-01-16T21:30:15;28.50;;;13.90;;
39050;SDS011;24805;55.852;37.644;2023-01-16T21:35:17;26.52;;;13.55;;
39050;SDS011;24805;55.852;37.644;2023-01-16T21:40:20;29.20;;;15.38;;
39050;SDS011;24805;55.852;37.644;2023-01-16T21:45:22;25.30;;;14.00;;
39050;SDS011;24805;55.852;37.644;2023-01-16T21:50:42;22.55;;;12.75;;
39050;SDS011;24805;55.852;37.644;2023-01-16T21:55:49;23.17;;;13.35;;
39050;SDS011;24805;55.852;37.644;2023-01-16T22:00:52;23.95;;;12.07;;
39050;SDS011;24805;55.852;37.644;2023-01-16T22:05:55;21.55;;;13.70;;
39050;SDS011;24805;55.852;37.644;2023-01-16T22:10:58;15.07;;;6.80;;
39050;SDS011;24805;55.852;37.644;2023-01-16T22:16:26;21.00;;;12.05;;
39050;SDS011;24805;55.852;37.644;2023-01-16T22:21:46;24.60;;;13.02;;
39050;SDS011;24805;55.852;37.644;2023-01-16T22:26:48;22.58;;;12.82;;
39050;SDS011;24805;55.852;37.644;2023-01-16T22:31:51;23.27;;;12.13;;
39050;SDS011;24805;55.852;37.644;2023-01-16T22:36:53;24.83;;;13.88;;
39050;SDS011;24805;55.852;37.644;2023-01-16T22:41:55;22.75;;;13.15;;
39050;SDS011;24805;55.852;37.644;2023-01-16T22:46:57;21.92;;;12.23;;
39050;SDS011;24805;55.852;37.644;2023-01-16T22:51:59;24.17;;;12.93;;
39050;SDS011;24805;55.852;37.644;2023-01-16T22:57:01;23.80;;;11.82;;
39050;SDS011;24805;55.852;37.644;2023-01-16T23:02:03;21.52;;;12.88;;
39050;SDS011;24805;55.852;37.644;2023-01-16T23:07:06;20.08;;;11.98;;
39050;SDS011;24805;55.852;37.644;2023-01-16T23:12:09;23.40;;;12.27;;
39050;SDS011;24805;55.852;37.644;2023-01-16T23:17:11;22.30;;;12.05;;
39050;SDS011;24805;55.852;37.644;2023-01-16T23:22:13;15.88;;;9.45;;
39050;SDS011;24805;55.852;37.644;2023-01-16T23:27:15;21.20;;;10.93;;
39050;SDS011;24805;55.852;37.644;2023-01-16T23:32:18;15.48;;;9.15;;
39050;SDS011;24805;55.852;37.644;2023-01-16T23:37:21;19.10;;;10.38;;
39050;SDS011;24805;55.852;37.644;2023-01-16T23:42:23;18.25;;;10.38;;
39050;SDS011;24805;55.852;37.644;2023-01-16T23:47:44;16.55;;;9.73;;
39050;SDS011;24805;55.852;37.644;2023-01-16T23:52:46;16.45;;;8.98;;
39050;SDS011;24805;55.852;37.644;2023-01-16T23:57:49;18.35;;;11.10;;
